Time;durP1;ratioP1;P1;durP2;ratioP2;P2;SDS_P1;SDS_P2;PMS_P1;PMS_P2;Temp;Humidity;BMP_temperature;BMP_pressure;BME280_temperature;BME280_humidity;BME280_pressure;Samples;Min_cycle;Max_cycle;Signal;HPM_P1;HPM_P2
2021/12/29 00:01:04;;;;;;;30.20;8.35;;;7.00;99.90;;;;;;4971872;28;20137;-75
2021/12/29 00:03:30;;;;;;;32.97;9.95;;;7.10;99.90;;;;;;4969177;28;20049;-75
2021/12/29 00:05:56;;;;;;;35.78;10.50;;;7.10;99.90;;;;;;4970603;28;20046;-76
2021/12/29 00:08:22;;;;;;;32.00;8.63;;;7.10;99.90;;;;;;4969081;28;20053;-75
2021/12/29 00:10:54;;;;;;;31.90;7.75;;;7.10;99.90;;;;;;4969381;28;20509;-76
2021/12/29 00:13:21;;;;;;;33.15;8.45;;;7.10;99.90;;;;;;4964040;28;20507;-75
2021/12/29 00:15:47;;;;;;;30.85;8.30;;;7.10;99.90;;;;;;4969988;28;20057;-76
2021/12/29 00:18:13;;;;;;;29.23;7.68;;;7.10;99.90;;;;;;4966959;28;20042;-75
2021/12/29 00:20:38;;;;;;;37.83;8.43;;;7.10;99.90;;;;;;4970153;28;20034;-75
2021/12/29 00:23:07;;;;;;;33.28;8.10;;;7.10;99.90;;;;;;4968957;28;20074;-75
2021/12/29 00:25:33;;;;;;;34.58;8.35;;;7.20;99.90;;;;;;4960036;28;20040;-75
2021/12/29 00:28:00;;;;;;;40.72;9.40;;;7.10;99.90;;;;;;4978522;28;20046;-75
2021/12/29 00:30:27;;;;;;;38.70;8.27;;;7.10;99.90;;;;;;4973955;28;20125;-75
2021/12/29 00:32:53;;;;;;;31.17;8.18;;;7.10;99.90;;;;;;4973374;28;20042;-76
2021/12/29 00:35:19;;;;;;;36.70;8.70;;;7.20;99.90;;;;;;4957955;28;20056;-75
2021/12/29 00:37:45;;;;;;;37.20;8.23;;;7.20;99.90;;;;;;4958508;28;20042;-75
2021/12/29 00:40:12;;;;;;;33.28;8.43;;;7.20;99.90;;;;;;4969763;28;20774;-76
2021/12/29 00:42:38;;;;;;;37.88;8.45;;;7.20;99.90;;;;;;4969652;28;20043;-75
2021/12/29 00:45:05;;;;;;;42.42;9.13;;;7.30;99.90;;;;;;4970575;28;20038;-76
2021/12/29 00:47:33;;;;;;;44.97;9.30;;;7.30;99.90;;;;;;4968028;28;20490;-75
2021/12/29 00:50:06;;;;;;;39.85;8.82;;;7.20;99.90;;;;;;4971472;28;20042;-75
2021/12/29 00:52:31;;;;;;;;;;;7.20;99.90;;;;;;4970303;28;20049;-76
2021/12/29 00:54:57;;;;;;;44.78;9.57;;;7.20;99.90;;;;;;4972463;28;19917;-75
2021/12/29 00:57:23;;;;;;;47.83;10.52;;;7.20;99.90;;;;;;4958126;28;20038;-76
2021/12/29 00:59:49;;;;;;;49.42;10.82;;;7.20;99.90;;;;;;4974121;28;20157;-75
2021/12/29 01:02:14;;;;;;;62.15;12.75;;;7.10;99.90;;;;;;4973960;28;20050;-76
2021/12/29 01:04:40;;;;;;;74.47;13.30;;;7.20;99.90;;;;;;4970215;28;20047;-76
2021/12/29 01:07:05;;;;;;;87.22;14.85;;;7.20;99.90;;;;;;4984952;28;20038;-76
2021/12/29 01:09:31;;;;;;;93.88;14.98;;;7.20;99.90;;;;;;4982485;28;20034;-76
2021/12/29 01:11:59;;;;;;;100.80;16.10;;;7.20;99.90;;;;;;4980249;28;20125;-76
2021/12/29 01:14:29;;;;;;;121.38;16.92;;;7.20;99.90;;;;;;4986790;28;20510;-76
2021/12/29 01:16:56;;;;;;;144.75;18.77;;;7.20;99.90;;;;;;4980072;28;20401;-75
2021/12/29 01:19:28;;;;;;;137.63;18.70;;;7.20;99.90;;;;;;4963711;28;20454;-75
2021/12/29 01:21:56;;;;;;;119.88;18.00;;;7.20;99.90;;;;;;4986564;28;20386;-76
2021/12/29 01:24:26;;;;;;;119.53;17.83;;;7.20;99.90;;;;;;4983890;28;20446;-76
2021/12/29 01:26:52;;;;;;;149.15;17.35;;;7.20;99.90;;;;;;4971357;28;20409;-76
2021/12/29 01:29:18;;;;;;;129.23;17.20;;;7.20;99.90;;;;;;4978067;28;20034;-75
2021/12/29 01:31:44;;;;;;;136.32;17.40;;;7.20;99.90;;;;;;4979282;28;20041;-75
2021/12/29 01:34:10;;;;;;;151.38;18.13;;;7.30;99.90;;;;;;4984012;28;20148;-75
2021/12/29 01:36:39;;;;;;;164.93;18.52;;;7.30;99.90;;;;;;4974967;28;20039;-75
2021/12/29 01:39:10;;;;;;;152.73;17.45;;;7.30;99.90;;;;;;4973040;28;20383;-76
2021/12/29 01:41:37;;;;;;;148.63;17.97;;;7.30;99.90;;;;;;4978856;28;20077;-76
2021/12/29 01:44:04;;;;;;;202.35;19.17;;;7.20;99.90;;;;;;4986868;28;20054;-75
2021/12/29 01:46:30;;;;;;;208.27;20.05;;;7.30;99.90;;;;;;4979901;28;20552;-76
2021/12/29 01:48:56;;;;;;;214.25;19.17;;;7.30;99.90;;;;;;4985108;28;20533;-76
2021/12/29 01:51:22;;;;;;;242.32;19.45;;;7.30;99.90;;;;;;4973134;28;20073;-75
2021/12/29 01:54:03;;;;;;;220.75;18.77;;;7.30;99.90;;;;;;4982688;28;20052;-76
2021/12/29 01:56:31;;;;;;;152.02;17.77;;;7.30;99.90;;;;;;4977613;28;20505;-75
2021/12/29 01:58:57;;;;;;;124.68;16.17;;;7.30;99.90;;;;;;4985718;28;20497;-76
2021/12/29 02:01:23;;;;;;;126.72;15.80;;;7.30;99.90;;;;;;4985192;28;20125;-76
2021/12/29 02:03:50;;;;;;;111.18;14.90;;;7.30;99.90;;;;;;4986589;28;20041;-76
2021/12/29 02:06:16;;;;;;;107.03;14.80;;;7.30;99.90;;;;;;4971007;28;20038;-75
2021/12/29 02:11:10;;;;;;;118.85;15.50;;;7.30;99.90;;;;;;5012507;28;20041;-75
2021/12/29 02:13:35;;;;;;;155.27;16.02;;;7.30;99.90;;;;;;4989410;28;20052;-75
2021/12/29 02:16:01;;;;;;;151.93;16.52;;;7.40;99.90;;;;;;4992931;28;20037;-75
2021/12/29 02:18:27;;;;;;;145.45;17.65;;;7.40;99.90;;;;;;4988392;28;20041;-75
2021/12/29 02:20:54;;;;;;;129.55;16.02;;;7.40;99.90;;;;;;4984754;28;20049;-75
2021/12/29 02:23:34;;;;;;;108.47;16.75;;;7.40;99.90;;;;;;4980040;28;20493;-75
2021/12/29 02:26:00;;;;;;;101.20;16.33;;;7.40;99.90;;;;;;4984465;28;20479;-75
2021/12/29 02:28:35;;;;;;;112.88;15.32;;;7.40;99.90;;;;;;4981983;28;20042;-75
2021/12/29 02:31:03;;;;;;;97.07;15.15;;;7.50;99.90;;;;;;4980044;28;20049;-74
2021/12/29 02:33:30;;;;;;;90.65;13.60;;;7.40;99.90;;;;;;4984768;28;20421;-75
2021/12/29 02:35:58;;;;;;;70.63;13.68;;;7.50;99.90;;;;;;4983324;28;20493;-75
2021/12/29 02:38:29;;;;;;;75.35;13.85;;;7.50;99.90;;;;;;4960558;28;20711;-75
2021/12/29 02:40:59;;;;;;;77.07;14.05;;;7.50;99.90;;;;;;4995506;28;20517;-74
2021/12/29 02:43:25;;;;;;;61.67;13.40;;;7.50;99.90;;;;;;4978558;28;20545;-75
2021/12/29 02:45:58;;;;;;;72.53;13.82;;;7.60;99.90;;;;;;4981006;28;20517;-75
2021/12/29 02:48:29;;;;;;;65.65;15.20;;;7.50;99.90;;;;;;4973671;28;20042;-74
2021/12/29 02:50:56;;;;;;;77.35;16.20;;;7.60;99.90;;;;;;4976439;28;20326;-75
2021/12/29 02:53:24;;;;;;;77.45;17.30;;;7.60;99.90;;;;;;4960669;28;20062;-75
2021/12/29 02:55:52;;;;;;;78.22;18.35;;;7.60;99.90;;;;;;4976243;28;20437;-75
2021/12/29 02:58:17;;;;;;;82.97;19.40;;;7.60;99.90;;;;;;4980215;28;20470;-75
2021/12/29 03:00:43;;;;;;;117.88;22.00;;;7.70;99.90;;;;;;4959552;28;20073;-75
2021/12/29 03:03:16;;;;;;;94.95;21.27;;;7.60;99.90;;;;;;4978187;28;20040;-75
2021/12/29 03:05:43;;;;;;;106.70;24.33;;;7.60;99.90;;;;;;4974574;28;20494;-75
2021/12/29 03:08:09;;;;;;;102.25;25.23;;;7.70;99.90;;;;;;4978908;28;20418;-75
2021/12/29 03:10:34;;;;;;;104.63;25.70;;;7.70;99.90;;;;;;4974740;28;20045;-75
2021/12/29 03:13:00;;;;;;;118.07;25.75;;;7.70;99.90;;;;;;4972292;28;20036;-75
2021/12/29 03:15:26;;;;;;;141.57;27.65;;;7.70;99.90;;;;;;4960018;28;20030;-75
2021/12/29 03:17:51;;;;;;;141.75;29.38;;;7.70;99.90;;;;;;4981985;28;20038;-75
2021/12/29 03:20:17;;;;;;;147.75;28.10;;;7.70;99.90;;;;;;4972998;28;20050;-75
2021/12/29 03:22:42;;;;;;;166.65;30.17;;;7.70;99.90;;;;;;4987081;28;20414;-75
2021/12/29 03:25:08;;;;;;;141.18;30.95;;;7.70;99.90;;;;;;4973192;28;20050;-75
2021/12/29 03:27:34;;;;;;;164.77;29.92;;;7.80;99.90;;;;;;4972115;28;20479;-75
2021/12/29 03:30:00;;;;;;;148.27;31.27;;;7.70;99.90;;;;;;4974479;28;20038;-76
2021/12/29 03:32:38;;;;;;;137.23;30.48;;;7.80;99.90;;;;;;4992086;28;20026;-76
2021/12/29 03:35:04;;;;;;;146.40;30.50;;;7.80;99.90;;;;;;4978184;28;20050;-76
2021/12/29 03:37:30;;;;;;;157.15;30.13;;;7.80;99.90;;;;;;4977327;28;20112;-76
2021/12/29 03:39:56;;;;;;;137.63;29.25;;;7.70;99.90;;;;;;4999096;28;20042;-76
2021/12/29 03:42:21;;;;;;;147.05;28.75;;;7.70;99.90;;;;;;4965325;28;20046;-76
2021/12/29 03:44:47;;;;;;;130.50;26.77;;;7.70;99.90;;;;;;5001639;28;20045;-76
2021/12/29 03:47:13;;;;;;;126.13;27.08;;;7.70;99.90;;;;;;4999790;28;20039;-76
2021/12/29 03:49:38;;;;;;;115.72;25.10;;;7.80;99.90;;;;;;4984445;28;20501;-76
2021/12/29 03:52:05;;;;;;;110.90;26.13;;;7.80;99.90;;;;;;4981449;28;20049;-76
2021/12/29 03:54:32;;;;;;;92.35;26.38;;;7.80;99.90;;;;;;4980230;28;20042;-76
2021/12/29 03:57:01;;;;;;;92.82;24.48;;;7.80;99.90;;;;;;4980498;28;20042;-76
2021/12/29 03:59:28;;;;;;;95.00;25.30;;;7.80;99.90;;;;;;4984482;28;20073;-76
2021/12/29 04:01:54;;;;;;;109.15;24.85;;;7.80;99.90;;;;;;5001559;28;20045;-76
2021/12/29 04:04:20;;;;;;;100.28;25.05;;;7.80;99.90;;;;;;4988412;28;20498;-76
2021/12/29 04:06:47;;;;;;;87.72;24.02;;;7.80;99.90;;;;;;4980847;28;20116;-76
2021/12/29 04:09:14;;;;;;;81.22;23.70;;;7.80;99.90;;;;;;4967937;28;20045;-76
2021/12/29 04:11:40;;;;;;;71.75;22.15;;;7.70;99.90;;;;;;4989644;28;20038;-76
2021/12/29 04:14:05;;;;;;;86.22;23.50;;;7.80;99.90;;;;;;4968239;28;20621;-76
2021/12/29 04:16:36;;;;;;;71.85;21.95;;;7.80;99.90;;;;;;4983246;28;20505;-76
2021/12/29 04:19:14;;;;;;;77.57;21.88;;;7.80;99.90;;;;;;4975153;28;20070;-76
2021/12/29 04:21:43;;;;;;;76.65;22.48;;;7.80;99.90;;;;;;4988306;28;20033;-76
2021/12/29 04:24:09;;;;;;;71.15;21.40;;;7.80;99.90;;;;;;4980191;28;20050;-76
2021/12/29 04:26:37;;;;;;;72.47;22.23;;;7.80;99.90;;;;;;4982164;28;20127;-76
2021/12/29 04:29:08;;;;;;;67.57;22.05;;;7.80;99.90;;;;;;4980354;28;20165;-76
2021/12/29 04:31:34;;;;;;;76.80;23.92;;;7.80;99.90;;;;;;4985933;28;20037;-76
2021/12/29 04:34:00;;;;;;;86.80;24.55;;;7.80;99.90;;;;;;4984833;28;20042;-76
2021/12/29 04:36:25;;;;;;;79.20;24.58;;;7.80;99.90;;;;;;4968163;28;20490;-76
2021/12/29 04:38:53;;;;;;;93.18;23.92;;;7.70;99.90;;;;;;4981745;28;20072;-76
2021/12/29 04:41:20;;;;;;;78.90;24.80;;;7.80;99.90;;;;;;4980581;28;20030;-76
2021/12/29 04:43:46;;;;;;;79.28;25.02;;;7.70;99.90;;;;;;4985181;28;20069;-76
2021/12/29 04:46:17;;;;;;;86.47;26.33;;;7.80;99.90;;;;;;4979183;28;20458;-76
2021/12/29 04:48:50;;;;;;;94.25;25.88;;;7.80;99.90;;;;;;4978544;28;20030;-76
2021/12/29 04:51:24;;;;;;;94.85;26.15;;;7.70;99.90;;;;;;4983792;28;20049;-76
2021/12/29 04:53:50;;;;;;;81.78;24.70;;;7.70;99.90;;;;;;4990183;28;20034;-76
2021/12/29 04:56:16;;;;;;;76.72;24.92;;;7.70;99.90;;;;;;4985010;28;20042;-76
2021/12/29 04:58:42;;;;;;;81.00;25.15;;;7.70;99.90;;;;;;4970737;28;20038;-76
2021/12/29 05:01:08;;;;;;;85.93;26.80;;;7.70;99.90;;;;;;4984113;28;20121;-76
2021/12/29 05:03:38;;;;;;;102.32;27.23;;;7.70;99.90;;;;;;4965847;28;20124;-76
2021/12/29 05:08:32;;;;;;;97.18;26.63;;;7.70;99.90;;;;;;4980137;28;20046;-76
2021/12/29 05:11:06;;;;;;;117.85;28.80;;;7.70;99.90;;;;;;4987434;28;20038;-76
2021/12/29 05:13:35;;;;;;;101.53;28.17;;;7.70;99.90;;;;;;4964068;28;20042;-76
2021/12/29 05:16:01;;;;;;;112.35;29.92;;;7.70;99.90;;;;;;4979164;28;20509;-76
2021/12/29 05:18:32;;;;;;;96.90;30.52;;;7.70;99.90;;;;;;4975579;28;20462;-76
2021/12/29 05:20:58;;;;;;;111.40;31.25;;;7.70;99.90;;;;;;4982703;28;20435;-76
2021/12/29 05:23:25;;;;;;;122.90;30.35;;;7.70;99.90;;;;;;4979934;28;20056;-76
2021/12/29 05:25:52;;;;;;;123.45;31.27;;;7.70;99.90;;;;;;4965182;28;20038;-76
2021/12/29 05:28:18;;;;;;;110.68;29.90;;;7.70;99.90;;;;;;4980951;28;20446;-76
2021/12/29 05:30:46;;;;;;;117.28;31.38;;;7.70;99.90;;;;;;4977638;28;20037;-76
2021/12/29 05:33:12;;;;;;;100.40;29.63;;;7.70;99.90;;;;;;4980495;28;20034;-76
2021/12/29 05:35:38;;;;;;;116.20;32.30;;;7.70;99.90;;;;;;4981751;28;20125;-76
2021/12/29 05:38:04;;;;;;;110.53;30.42;;;7.70;99.90;;;;;;4981988;28;20121;-76
2021/12/29 05:40:30;;;;;;;106.72;30.60;;;7.80;99.90;;;;;;4982547;28;20048;-76
2021/12/29 05:42:56;;;;;;;106.28;29.75;;;7.80;99.90;;;;;;4977502;28;20502;-76
2021/12/29 05:45:23;;;;;;;102.78;30.65;;;7.70;99.90;;;;;;4980515;28;20498;-76
2021/12/29 05:47:48;;;;;;;104.70;30.35;;;7.80;99.90;;;;;;4980430;28;20589;-76
2021/12/29 05:50:18;;;;;;;104.63;29.33;;;7.80;99.90;;;;;;4981377;28;20325;-76
2021/12/29 05:52:43;;;;;;;103.95;29.02;;;7.80;99.90;;;;;;4977383;28;20117;-76
2021/12/29 05:55:10;;;;;;;109.38;30.63;;;7.80;99.90;;;;;;4979025;28;20133;-76
2021/12/29 05:57:36;;;;;;;102.60;28.92;;;7.80;99.90;;;;;;4978675;28;20064;-76
2021/12/29 06:00:04;;;;;;;103.38;28.95;;;7.80;99.90;;;;;;4975249;28;20034;-76
2021/12/29 06:02:30;;;;;;;113.53;30.48;;;7.80;99.90;;;;;;4962913;28;20405;-76
2021/12/29 06:04:55;;;;;;;89.63;28.23;;;7.80;99.90;;;;;;4962698;28;20125;-76
2021/12/29 06:07:21;;;;;;;100.28;27.42;;;7.80;99.90;;;;;;4978667;28;20069;-76
2021/12/29 06:09:47;;;;;;;109.88;28.50;;;7.90;99.90;;;;;;4976870;28;20035;-77
2021/12/29 06:12:12;;;;;;;89.25;26.58;;;7.90;99.90;;;;;;4976742;28;20046;-77
2021/12/29 06:14:38;;;;;;;84.93;26.60;;;7.90;99.90;;;;;;4960333;28;20042;-76
2021/12/29 06:17:04;;;;;;;86.28;26.13;;;7.80;99.90;;;;;;4979449;28;20495;-76
2021/12/29 06:19:30;;;;;;;89.57;24.88;;;7.80;99.90;;;;;;4971941;28;20132;-76
2021/12/29 06:21:56;;;;;;;103.90;26.20;;;7.80;99.90;;;;;;4975577;28;20045;-76
2021/12/29 06:24:21;;;;;;;92.88;26.08;;;7.80;99.90;;;;;;4980141;28;20038;-76
2021/12/29 06:26:48;;;;;;;114.22;26.67;;;7.90;99.90;;;;;;4974479;28;20053;-76
2021/12/29 06:29:14;;;;;;;97.97;25.67;;;7.90;99.90;;;;;;4975807;28;20545;-76
2021/12/29 06:31:39;;;;;;;89.53;25.08;;;7.90;99.90;;;;;;4975114;28;20038;-76
2021/12/29 06:34:05;;;;;;;95.57;26.42;;;7.80;99.90;;;;;;4977721;28;20442;-76
2021/12/29 06:36:31;;;;;;;111.65;26.23;;;7.90;99.90;;;;;;4961382;28;20038;-76
2021/12/29 06:38:56;;;;;;;99.45;26.65;;;7.90;99.90;;;;;;4975033;28;20081;-76
2021/12/29 06:41:22;;;;;;;104.25;25.65;;;7.90;99.90;;;;;;4975107;28;20069;-76
2021/12/29 06:43:48;;;;;;;110.80;25.80;;;7.90;99.90;;;;;;4976212;28;20045;-77
2021/12/29 06:46:14;;;;;;;97.40;25.60;;;7.90;99.90;;;;;;4982726;28;20421;-76
2021/12/29 06:48:40;;;;;;;114.22;26.63;;;7.90;99.90;;;;;;4978101;28;20050;-76
2021/12/29 06:51:05;;;;;;;141.70;28.58;;;7.90;99.90;;;;;;4982506;28;20088;-76
2021/12/29 06:53:32;;;;;;;130.73;28.40;;;7.80;99.90;;;;;;4968576;28;20473;-76
2021/12/29 06:55:58;;;;;;;143.88;29.38;;;7.90;99.90;;;;;;4982414;28;20134;-76
2021/12/29 06:58:23;;;;;;;155.48;30.38;;;7.90;99.90;;;;;;4982317;28;21430;-76
2021/12/29 07:00:49;;;;;;;137.77;30.52;;;7.80;99.90;;;;;;4983179;28;20046;-76
2021/12/29 07:03:15;;;;;;;145.60;29.13;;;7.80;99.90;;;;;;4997973;28;20050;-76
2021/12/29 07:05:40;;;;;;;151.20;28.73;;;7.90;99.90;;;;;;4977466;28;20091;-76
2021/12/29 07:08:07;;;;;;;165.75;31.85;;;7.80;99.90;;;;;;4998149;28;20080;-76
2021/12/29 07:10:32;;;;;;;143.77;29.08;;;7.80;99.90;;;;;;4982816;28;20046;-76
2021/12/29 07:12:58;;;;;;;152.32;29.85;;;7.80;99.90;;;;;;4975957;28;20090;-76
2021/12/29 07:15:24;;;;;;;136.57;27.08;;;7.80;99.90;;;;;;4986234;28;20082;-76
2021/12/29 07:17:49;;;;;;;136.55;29.90;;;7.80;99.90;;;;;;4995863;28;20042;-76
2021/12/29 07:20:15;;;;;;;146.48;28.23;;;7.80;99.90;;;;;;4985019;28;20053;-77
2021/12/29 07:22:41;;;;;;;138.52;28.17;;;7.80;99.90;;;;;;4973692;28;20129;-76
2021/12/29 07:25:07;;;;;;;142.85;27.83;;;7.80;99.90;;;;;;4985169;28;20038;-76
2021/12/29 07:27:32;;;;;;;152.55;28.65;;;7.80;99.90;;;;;;4979528;28;20184;-77
2021/12/29 07:29:58;;;;;;;179.82;29.73;;;7.80;99.90;;;;;;4973697;28;20437;-77
2021/12/29 07:32:23;;;;;;;157.73;28.30;;;7.80;99.90;;;;;;4986173;28;20046;-77
2021/12/29 07:34:49;;;;;;;153.27;29.83;;;7.80;99.90;;;;;;4970080;28;20046;-77
2021/12/29 07:37:15;;;;;;;153.18;28.70;;;7.80;99.90;;;;;;4982067;28;20049;-76
2021/12/29 07:39:41;;;;;;;135.65;27.08;;;7.80;99.90;;;;;;4984025;28;20046;-77
2021/12/29 07:42:07;;;;;;;136.15;29.17;;;7.80;99.90;;;;;;4981278;28;20137;-77
2021/12/29 07:44:33;;;;;;;129.57;27.67;;;7.80;99.90;;;;;;4981262;28;20042;-77
2021/12/29 07:46:59;;;;;;;150.63;28.55;;;7.80;99.90;;;;;;4985657;28;20655;-76
2021/12/29 07:49:26;;;;;;;138.23;29.02;;;7.80;99.90;;;;;;4982272;28;20038;-76
2021/12/29 07:51:53;;;;;;;134.25;29.00;;;7.80;99.90;;;;;;4986006;28;20076;-77
2021/12/29 07:54:20;;;;;;;145.65;29.13;;;7.80;99.90;;;;;;4985998;28;20093;-76
2021/12/29 07:56:46;;;;;;;133.77;28.40;;;7.80;99.90;;;;;;4981900;28;20052;-77
2021/12/29 07:59:12;;;;;;;137.02;28.55;;;7.80;99.90;;;;;;4972018;28;20556;-77
2021/12/29 08:01:41;;;;;;;147.15;28.08;;;7.80;99.90;;;;;;4981100;28;20072;-76
2021/12/29 08:04:09;;;;;;;139.73;27.75;;;7.90;99.90;;;;;;4983999;28;20038;-76
2021/12/29 08:06:35;;;;;;;164.13;28.73;;;7.80;99.90;;;;;;4978316;28;20034;-75
2021/12/29 08:09:01;;;;;;;139.45;28.13;;;7.90;99.90;;;;;;4982183;28;20045;-76
2021/12/29 08:11:27;;;;;;;109.38;26.60;;;7.80;99.90;;;;;;4979568;28;20036;-76
2021/12/29 08:13:53;;;;;;;116.20;26.27;;;7.80;99.90;;;;;;4978800;28;20038;-76
2021/12/29 08:16:19;;;;;;;128.85;25.58;;;7.80;99.90;;;;;;4980864;28;20097;-77
2021/12/29 08:18:45;;;;;;;128.18;24.55;;;7.90;99.90;;;;;;4973275;28;20046;-76
2021/12/29 08:21:10;;;;;;;124.15;24.83;;;7.90;99.90;;;;;;4973072;28;20042;-76
2021/12/29 08:23:36;;;;;;;123.22;25.27;;;7.90;99.90;;;;;;4974492;28;20050;-77
2021/12/29 08:26:02;;;;;;;104.93;23.75;;;7.90;99.90;;;;;;4958828;28;20121;-76
2021/12/29 08:28:28;;;;;;;111.93;22.63;;;7.90;99.90;;;;;;4955858;28;20038;-77
2021/12/29 08:30:55;;;;;;;125.10;25.73;;;8.00;99.90;;;;;;4969299;28;20038;-76
2021/12/29 08:33:21;;;;;;;115.88;24.98;;;8.00;99.90;;;;;;4971622;28;20049;-76
2021/12/29 08:35:47;;;;;;;131.65;26.60;;;8.00;99.90;;;;;;4972675;28;20042;-76
2021/12/29 08:38:13;;;;;;;116.05;24.85;;;8.10;99.90;;;;;;4972735;28;20049;-76
2021/12/29 08:40:39;;;;;;;134.25;23.85;;;8.10;99.90;;;;;;4957715;28;20085;-76
2021/12/29 08:43:05;;;;;;;161.48;27.48;;;8.10;99.90;;;;;;4972270;28;20088;-76
2021/12/29 08:45:34;;;;;;;113.68;23.77;;;8.10;99.90;;;;;;4971111;28;20049;-76
2021/12/29 08:48:00;;;;;;;140.27;22.23;;;8.10;99.90;;;;;;4970231;28;20049;-76
2021/12/29 08:50:29;;;;;;;201.52;27.05;;;8.10;99.90;;;;;;4983073;28;20081;-76
2021/12/29 08:52:57;;;;;;;165.27;25.83;;;8.20;99.90;;;;;;4973465;28;20045;-76
2021/12/29 08:55:23;;;;;;;176.20;25.55;;;8.20;99.90;;;;;;4958956;28;20100;-77
2021/12/29 08:57:49;;;;;;;223.50;26.63;;;8.20;99.90;;;;;;4982877;28;20048;-77
2021/12/29 09:00:17;;;;;;;196.48;24.77;;;8.20;99.90;;;;;;4975785;28;20510;-77
2021/12/29 09:02:43;;;;;;;155.00;22.30;;;8.20;99.90;;;;;;4966527;28;20046;-77
2021/12/29 09:05:10;;;;;;;168.32;24.35;;;8.20;99.90;;;;;;4970220;28;20522;-76
2021/12/29 09:07:36;;;;;;;174.20;24.20;;;8.30;99.90;;;;;;4968367;28;20038;-77
2021/12/29 09:10:04;;;;;;;123.38;21.65;;;8.30;99.90;;;;;;4953221;28;20033;-77
2021/12/29 09:12:30;;;;;;;110.22;20.40;;;8.20;99.90;;;;;;4970225;28;20026;-77
2021/12/29 09:14:56;;;;;;;110.32;21.05;;;8.30;99.90;;;;;;4967658;28;20601;-77
2021/12/29 09:17:22;;;;;;;86.40;18.17;;;8.40;99.90;;;;;;4968488;28;20138;-76
2021/12/29 09:19:48;;;;;;;73.72;17.08;;;8.30;99.90;;;;;;4983432;28;20041;-76
2021/12/29 09:22:14;;;;;;;65.88;14.82;;;8.40;99.90;;;;;;4968202;28;20125;-76
2021/12/29 09:24:40;;;;;;;64.55;14.68;;;8.30;99.90;;;;;;4968123;28;20092;-76
2021/12/29 09:27:06;;;;;;;63.15;14.80;;;8.40;99.90;;;;;;4967796;28;20042;-76
2021/12/29 09:29:33;;;;;;;54.78;14.13;;;8.40;99.90;;;;;;4969579;28;20035;-76
2021/12/29 09:32:01;;;;;;;64.40;14.32;;;8.40;99.90;;;;;;4965988;28;20045;-77
2021/12/29 09:34:26;;;;;;;48.20;13.20;;;8.40;99.90;;;;;;4970884;28;20178;-77
2021/12/29 09:36:52;;;;;;;56.92;13.23;;;8.30;99.90;;;;;;4970127;28;20677;-77
2021/12/29 09:39:18;;;;;;;51.50;13.90;;;8.30;99.90;;;;;;4970219;28;20058;-77
2021/12/29 09:41:43;;;;;;;54.58;14.55;;;8.40;99.90;;;;;;4959125;28;20038;-76
2021/12/29 09:44:10;;;;;;;56.53;15.25;;;8.40;99.90;;;;;;4988254;28;20131;-77
2021/12/29 09:46:38;;;;;;;67.97;15.57;;;8.40;99.90;;;;;;4975157;28;20038;-77
2021/12/29 09:49:04;;;;;;;64.60;15.50;;;8.40;99.90;;;;;;4970900;28;20539;-76
2021/12/29 09:51:30;;;;;;;67.68;15.80;;;8.40;99.90;;;;;;4954594;28;20027;-77
2021/12/29 09:53:56;;;;;;;66.22;16.40;;;8.40;99.90;;;;;;4969825;28;20044;-76
2021/12/29 09:56:26;;;;;;;66.10;16.73;;;8.40;99.90;;;;;;4970614;28;20038;-76
2021/12/29 10:01:28;;;;;;;70.72;18.63;;;8.40;99.90;;;;;;1443633;26;20108;-76
2021/12/29 10:03:54;;;;;;;63.63;17.73;;;8.30;99.90;;;;;;4984923;28;20037;-76
2021/12/29 10:06:20;;;;;;;66.07;17.63;;;8.40;99.90;;;;;;4985689;28;20048;-75
2021/12/29 10:08:48;;;;;;;66.88;19.08;;;8.40;99.90;;;;;;4976934;28;20046;-75
2021/12/29 10:11:31;;;;;;;60.03;18.60;;;8.50;99.90;;;;;;4978192;28;20050;-75
2021/12/29 10:13:58;;;;;;;61.60;19.10;;;8.50;99.90;;;;;;4965057;28;20046;-75
2021/12/29 10:16:28;;;;;;;53.42;18.70;;;8.50;99.90;;;;;;4962606;28;20030;-75
2021/12/29 10:19:06;;;;;;;49.22;17.02;;;8.50;99.90;;;;;;4965285;28;20090;-75
2021/12/29 10:21:33;;;;;;;53.40;17.65;;;8.50;99.90;;;;;;4980949;28;20125;-75
2021/12/29 10:23:59;;;;;;;51.88;17.15;;;8.50;99.90;;;;;;4949853;28;20106;-75
2021/12/29 10:26:27;;;;;;;46.55;16.83;;;8.50;99.90;;;;;;4965686;28;20076;-75
2021/12/29 10:29:00;;;;;;;50.03;16.02;;;8.50;99.90;;;;;;4962896;28;20056;-75
2021/12/29 10:31:33;;;;;;;;;;;8.60;99.90;;;;;;4965729;28;20096;-75
2021/12/29 10:34:03;;;;;;;40.05;14.60;;;8.50;99.90;;;;;;4963895;28;19925;-75
2021/12/29 10:36:39;;;;;;;39.72;13.68;;;8.50;99.90;;;;;;4961416;28;20117;-74
2021/12/29 10:39:21;;;;;;;39.85;14.85;;;8.50;99.90;;;;;;4962765;28;21510;-76
2021/12/29 10:41:55;;;;;;;40.33;13.63;;;8.50;99.90;;;;;;4967611;28;20070;-75
2021/12/29 10:44:42;;;;;;;42.33;13.88;;;8.50;99.90;;;;;;4965647;28;20129;-75
2021/12/29 10:47:23;;;;;;;48.45;13.88;;;8.50;99.90;;;;;;4964201;28;20042;-75
2021/12/29 10:49:53;;;;;;;46.00;13.68;;;8.50;99.90;;;;;;4962606;28;20049;-75
2021/12/29 10:52:34;;;;;;;43.92;14.00;;;8.50;99.90;;;;;;4966388;28;20125;-75
2021/12/29 10:55:03;;;;;;;43.65;13.45;;;8.50;99.90;;;;;;4968352;28;20042;-76
2021/12/29 10:57:29;;;;;;;47.92;14.77;;;8.50;99.90;;;;;;4965974;28;20084;-76
2021/12/29 10:59:57;;;;;;;48.75;15.52;;;8.50;99.90;;;;;;4965663;28;20046;-76
2021/12/29 11:02:29;;;;;;;53.20;15.75;;;8.50;99.90;;;;;;4966905;28;20034;-76
2021/12/29 11:05:00;;;;;;;51.55;15.23;;;8.60;99.90;;;;;;4965053;28;20138;-76
2021/12/29 11:07:31;;;;;;;46.23;16.27;;;8.60;99.90;;;;;;4972386;28;20034;-75
2021/12/29 11:10:12;;;;;;;48.80;16.10;;;8.70;99.90;;;;;;4945921;28;20801;-75
